sensor_id;sensor_type;location;lat;lon;timestamp;temperature;humidity
55091;DHT22;40985;53.180;5.800;2023-02-28T00:02:17;3.90;99.90
55091;DHT22;40985;53.180;5.800;2023-02-28T00:04:43;4.00;99.90
55091;DHT22;40985;53.180;5.800;2023-02-28T00:07:09;4.00;99.90
55091;DHT22;40985;53.180;5.800;2023-02-28T00:09:35;3.90;99.90
55091;DHT22;40985;53.180;5.800;2023-02-28T00:12:00;3.90;99.90
55091;DHT22;40985;53.180;5.800;2023-02-28T00:14:38;4.00;99.90
55091;DHT22;40985;53.180;5.800;2023-02-28T00:17:04;4.00;99.90
55091;DHT22;40985;53.180;5.800;2023-02-28T00:19:30;4.10;99.90
55091;DHT22;40985;53.180;5.800;2023-02-28T00:21:55;4.00;99.90
55091;DHT22;40985;53.180;5.800;2023-02-28T00:24:21;4.00;99.90
55091;DHT22;40985;53.180;5.800;2023-02-28T00:26:47;3.90;99.90
55091;DHT22;40985;53.180;5.800;2023-02-28T00:29:12;4.10;99.90
55091;DHT22;40985;53.180;5.800;2023-02-28T00:31:38;4.10;99.90
55091;DHT22;40985;53.180;5.800;2023-02-28T00:34:04;4.10;99.90
55091;DHT22;40985;53.180;5.800;2023-02-28T00:36:29;4.00;99.90
55091;DHT22;40985;53.180;5.800;2023-02-28T00:38:55;4.10;99.90
55091;DHT22;40985;53.180;5.800;2023-02-28T00:41:20;4.00;99.90
55091;DHT22;40985;53.180;5.800;2023-02-28T00:43:46;4.20;99.90
55091;DHT22;40985;53.180;5.800;2023-02-28T00:46:12;4.10;99.90
55091;DHT22;40985;53.180;5.800;2023-02-28T00:48:37;4.20;99.90
55091;DHT22;40985;53.180;5.800;2023-02-28T00:51:03;4.30;99.90
55091;DHT22;40985;53.180;5.800;2023-02-28T00:53:29;4.20;99.90
55091;DHT22;40985;53.180;5.800;2023-02-28T00:55:55;4.30;99.90
55091;DHT22;40985;53.180;5.800;2023-02-28T00:58:21;4.20;99.90
55091;DHT22;40985;53.180;5.800;2023-02-28T01:00:47;4.20;99.90
55091;DHT22;40985;53.180;5.800;2023-02-28T01:03:17;4.10;99.90
55091;DHT22;40985;53.180;5.800;2023-02-28T01:05:42;4.20;99.90
55091;DHT22;40985;53.180;5.800;2023-02-28T01:08:08;4.20;99.90
55091;DHT22;40985;53.180;5.800;2023-02-28T01:10:34;4.20;99.90
55091;DHT22;40985;53.180;5.800;2023-02-28T01:13:02;4.20;99.90
55091;DHT22;40985;53.180;5.800;2023-02-28T01:15:28;4.20;99.90
55091;DHT22;40985;53.180;5.800;2023-02-28T01:17:54;4.10;99.90
55091;DHT22;40985;53.180;5.800;2023-02-28T01:20:19;4.10;99.90
55091;DHT22;40985;53.180;5.800;2023-02-28T01:22:46;4.20;99.90
55091;DHT22;40985;53.180;5.800;2023-02-28T01:25:12;4.20;99.90
55091;DHT22;40985;53.180;5.800;2023-02-28T01:27:38;4.20;99.90
55091;DHT22;40985;53.180;5.800;2023-02-28T01:30:06;4.20;99.90
55091;DHT22;40985;53.180;5.800;2023-02-28T01:32:32;4.30;99.90
55091;DHT22;40985;53.180;5.800;2023-02-28T01:34:57;4.30;99.90
55091;DHT22;40985;53.180;5.800;2023-02-28T01:37:23;4.20;99.90
55091;DHT22;40985;53.180;5.800;2023-02-28T01:39:49;4.20;99.90
55091;DHT22;40985;53.180;5.800;2023-02-28T01:42:14;4.30;99.90
55091;DHT22;40985;53.180;5.800;2023-02-28T01:47:29;4.20;99.90
55091;DHT22;40985;53.180;5.800;2023-02-28T01:49:55;4.20;99.90
55091;DHT22;40985;53.180;5.800;2023-02-28T01:52:22;4.20;99.90
55091;DHT22;40985;53.180;5.800;2023-02-28T01:54:52;4.10;99.90
55091;DHT22;40985;53.180;5.800;2023-02-28T01:57:22;4.10;99.90
55091;DHT22;40985;53.180;5.800;2023-02-28T01:59:56;4.00;99.90
55091;DHT22;40985;53.180;5.800;2023-02-28T02:02:24;4.10;99.90
55091;DHT22;40985;53.180;5.800;2023-02-28T02:04:57;4.10;99.90
55091;DHT22;40985;53.180;5.800;2023-02-28T02:07:25;3.90;99.90
55091;DHT22;40985;53.180;5.800;2023-02-28T02:12:57;4.00;99.90
55091;DHT22;40985;53.180;5.800;2023-02-28T02:23:29;4.10;99.90
55091;DHT22;40985;53.180;5.800;2023-02-28T02:31:51;4.20;99.90
55091;DHT22;40985;53.180;5.800;2023-02-28T02:34:29;4.10;99.90
55091;DHT22;40985;53.180;5.800;2023-02-28T02:37:29;4.20;99.90
55091;DHT22;40985;53.180;5.800;2023-02-28T02:42:57;4.40;99.90
55091;DHT22;40985;53.180;5.800;2023-02-28T02:45:41;4.40;99.90
55091;DHT22;40985;53.180;5.800;2023-02-28T02:48:12;4.50;99.90
55091;DHT22;40985;53.180;5.800;2023-02-28T02:51:13;4.30;99.90
55091;DHT22;40985;53.180;5.800;2023-02-28T02:53:50;4.50;99.90
55091;DHT22;40985;53.180;5.800;2023-02-28T02:56:21;4.50;99.90
55091;DHT22;40985;53.180;5.800;2023-02-28T02:58:50;4.60;99.90
55091;DHT22;40985;53.180;5.800;2023-02-28T03:01:22;4.50;99.90
55091;DHT22;40985;53.180;5.800;2023-02-28T03:03:57;4.40;99.90
55091;DHT22;40985;53.180;5.800;2023-02-28T03:06:24;4.50;99.90
55091;DHT22;40985;53.180;5.800;2023-02-28T03:08:50;4.50;99.90
55091;DHT22;40985;53.180;5.800;2023-02-28T03:11:16;4.60;99.90
55091;DHT22;40985;53.180;5.800;2023-02-28T03:19:00;4.50;99.90
55091;DHT22;40985;53.180;5.800;2023-02-28T03:27:23;4.50;99.90
55091;DHT22;40985;53.180;5.800;2023-02-28T03:29:58;4.70;99.90
55091;DHT22;40985;53.180;5.800;2023-02-28T03:32:50;4.60;99.90
55091;DHT22;40985;53.180;5.800;2023-02-28T03:35:21;4.60;99.90
55091;DHT22;40985;53.180;5.800;2023-02-28T03:37:53;4.50;99.90
55091;DHT22;40985;53.180;5.800;2023-02-28T03:40:23;4.50;99.90
55091;DHT22;40985;53.180;5.800;2023-02-28T03:42:55;4.60;99.90
55091;DHT22;40985;53.180;5.800;2023-02-28T03:45:29;4.50;99.90
55091;DHT22;40985;53.180;5.800;2023-02-28T03:48:05;4.50;99.90
55091;DHT22;40985;53.180;5.800;2023-02-28T03:50:38;4.50;99.90
55091;DHT22;40985;53.180;5.800;2023-02-28T03:53:13;4.50;99.90
55091;DHT22;40985;53.180;5.800;2023-02-28T03:55:43;4.70;99.90
55091;DHT22;40985;53.180;5.800;2023-02-28T03:58:25;4.70;99.90
55091;DHT22;40985;53.180;5.800;2023-02-28T04:01:02;4.50;99.90
55091;DHT22;40985;53.180;5.800;2023-02-28T04:03:37;4.50;99.90
55091;DHT22;40985;53.180;5.800;2023-02-28T04:06:04;4.80;99.90
55091;DHT22;40985;53.180;5.800;2023-02-28T04:08:31;4.50;99.90
55091;DHT22;40985;53.180;5.800;2023-02-28T04:11:03;4.80;99.90
55091;DHT22;40985;53.180;5.800;2023-02-28T04:13:31;4.50;99.90
55091;DHT22;40985;53.180;5.800;2023-02-28T04:15:57;4.70;99.90
55091;DHT22;40985;53.180;5.800;2023-02-28T04:18:23;4.60;99.90
55091;DHT22;40985;53.180;5.800;2023-02-28T04:20:48;4.70;99.90
55091;DHT22;40985;53.180;5.800;2023-02-28T04:23:14;4.60;99.90
55091;DHT22;40985;53.180;5.800;2023-02-28T04:25:40;4.70;99.90
55091;DHT22;40985;53.180;5.800;2023-02-28T04:28:06;4.60;99.90
55091;DHT22;40985;53.180;5.800;2023-02-28T04:30:32;4.60;99.90
55091;DHT22;40985;53.180;5.800;2023-02-28T04:32:58;4.50;99.90
55091;DHT22;40985;53.180;5.800;2023-02-28T04:35:24;4.80;99.90
55091;DHT22;40985;53.180;5.800;2023-02-28T04:37:49;4.50;99.90
55091;DHT22;40985;53.180;5.800;2023-02-28T04:40:15;4.80;99.90
55091;DHT22;40985;53.180;5.800;2023-02-28T04:42:41;4.60;99.90
55091;DHT22;40985;53.180;5.800;2023-02-28T04:45:07;4.70;99.90
55091;DHT22;40985;53.180;5.800;2023-02-28T04:47:36;4.70;99.90
55091;DHT22;40985;53.180;5.800;2023-02-28T04:50:02;4.60;99.90
55091;DHT22;40985;53.180;5.800;2023-02-28T04:52:29;4.80;99.90
55091;DHT22;40985;53.180;5.800;2023-02-28T04:54:54;4.80;99.90
55091;DHT22;40985;53.180;5.800;2023-02-28T04:57:20;4.90;99.90
55091;DHT22;40985;53.180;5.800;2023-02-28T04:59:46;4.70;99.90
55091;DHT22;40985;53.180;5.800;2023-02-28T05:02:11;4.90;99.90
55091;DHT22;40985;53.180;5.800;2023-02-28T05:04:37;4.70;99.90
55091;DHT22;40985;53.180;5.800;2023-02-28T05:07:03;4.70;99.90
55091;DHT22;40985;53.180;5.800;2023-02-28T05:09:29;4.90;99.90
55091;DHT22;40985;53.180;5.800;2023-02-28T05:11:55;4.70;99.90
55091;DHT22;40985;53.180;5.800;2023-02-28T05:14:21;4.90;99.90
55091;DHT22;40985;53.180;5.800;2023-02-28T05:16:47;4.70;99.90
55091;DHT22;40985;53.180;5.800;2023-02-28T05:19:12;4.80;99.90
55091;DHT22;40985;53.180;5.800;2023-02-28T05:21:40;4.90;99.90
55091;DHT22;40985;53.180;5.800;2023-02-28T05:24:10;4.80;99.90
55091;DHT22;40985;53.180;5.800;2023-02-28T05:26:41;4.80;99.90
55091;DHT22;40985;53.180;5.800;2023-02-28T05:29:08;4.80;99.90
55091;DHT22;40985;53.180;5.800;2023-02-28T05:31:35;4.80;99.90
55091;DHT22;40985;53.180;5.800;2023-02-28T05:34:00;4.70;99.90
55091;DHT22;40985;53.180;5.800;2023-02-28T05:36:26;4.70;99.90
55091;DHT22;40985;53.180;5.800;2023-02-28T05:38:52;4.70;99.90
55091;DHT22;40985;53.180;5.800;2023-02-28T05:41:19;4.80;99.90
55091;DHT22;40985;53.180;5.800;2023-02-28T05:43:46;5.00;99.90
55091;DHT22;40985;53.180;5.800;2023-02-28T05:46:13;4.90;99.90
55091;DHT22;40985;53.180;5.800;2023-02-28T05:48:39;5.00;99.90
55091;DHT22;40985;53.180;5.800;2023-02-28T05:51:06;4.90;99.90
55091;DHT22;40985;53.180;5.800;2023-02-28T05:53:32;5.00;99.90
55091;DHT22;40985;53.180;5.800;2023-02-28T05:55:58;4.80;99.90
55091;DHT22;40985;53.180;5.800;2023-02-28T05:58:24;4.80;99.90
55091;DHT22;40985;53.180;5.800;2023-02-28T06:00:59;4.70;99.90
55091;DHT22;40985;53.180;5.800;2023-02-28T06:03:25;5.00;99.90
55091;DHT22;40985;53.180;5.800;2023-02-28T06:05:51;4.80;99.90
55091;DHT22;40985;53.180;5.800;2023-02-28T06:08:17;4.70;99.90
55091;DHT22;40985;53.180;5.800;2023-02-28T06:10:43;4.50;99.90
55091;DHT22;40985;53.180;5.800;2023-02-28T06:13:10;4.30;99.90
55091;DHT22;40985;53.180;5.800;2023-02-28T06:15:37;4.50;99.90
55091;DHT22;40985;53.180;5.800;2023-02-28T06:18:03;4.30;99.90
55091;DHT22;40985;53.180;5.800;2023-02-28T06:20:30;4.20;99.90
55091;DHT22;40985;53.180;5.800;2023-02-28T06:22:56;4.10;99.90
55091;DHT22;40985;53.180;5.800;2023-02-28T06:25:25;4.10;99.90
55091;DHT22;40985;53.180;5.800;2023-02-28T06:27:51;4.00;99.90
55091;DHT22;40985;53.180;5.800;2023-02-28T06:30:16;3.60;99.90
55091;DHT22;40985;53.180;5.800;2023-02-28T06:32:42;3.70;99.90
55091;DHT22;40985;53.180;5.800;2023-02-28T06:35:08;3.50;99.90
55091;DHT22;40985;53.180;5.800;2023-02-28T06:37:34;3.60;99.90
55091;DHT22;40985;53.180;5.800;2023-02-28T06:40:00;3.30;99.90
55091;DHT22;40985;53.180;5.800;2023-02-28T06:42:25;3.20;99.90
55091;DHT22;40985;53.180;5.800;2023-02-28T06:44:57;3.30;99.90
55091;DHT22;40985;53.180;5.800;2023-02-28T06:47:24;3.40;99.90
55091;DHT22;40985;53.180;5.800;2023-02-28T06:49:50;3.30;99.90
55091;DHT22;40985;53.180;5.800;2023-02-28T06:52:16;3.10;99.90
55091;DHT22;40985;53.180;5.800;2023-02-28T06:54:42;3.10;99.90
55091;DHT22;40985;53.180;5.800;2023-02-28T06:57:07;3.20;99.90
55091;DHT22;40985;53.180;5.800;2023-02-28T06:59:33;3.20;99.90
55091;DHT22;40985;53.180;5.800;2023-02-28T07:02:00;3.10;99.90
55091;DHT22;40985;53.180;5.800;2023-02-28T07:04:28;2.90;99.90
55091;DHT22;40985;53.180;5.800;2023-02-28T07:06:54;2.90;99.90
55091;DHT22;40985;53.180;5.800;2023-02-28T07:09:22;3.00;99.90
55091;DHT22;40985;53.180;5.800;2023-02-28T07:11:48;3.00;99.90
55091;DHT22;40985;53.180;5.800;2023-02-28T07:14:14;3.00;99.90
55091;DHT22;40985;53.180;5.800;2023-02-28T07:16:39;3.00;99.90
55091;DHT22;40985;53.180;5.800;2023-02-28T07:19:05;3.10;99.90
55091;DHT22;40985;53.180;5.800;2023-02-28T07:21:31;2.80;99.90
55091;DHT22;40985;53.180;5.800;2023-02-28T07:23:56;2.80;99.90
55091;DHT22;40985;53.180;5.800;2023-02-28T07:26:23;2.90;99.90
55091;DHT22;40985;53.180;5.800;2023-02-28T07:28:49;2.70;99.90
55091;DHT22;40985;53.180;5.800;2023-02-28T07:31:16;2.80;99.90
55091;DHT22;40985;53.180;5.800;2023-02-28T07:33:43;2.70;99.90
55091;DHT22;40985;53.180;5.800;2023-02-28T07:36:12;2.70;99.90
55091;DHT22;40985;53.180;5.800;2023-02-28T07:38:43;2.80;99.90
55091;DHT22;40985;53.180;5.800;2023-02-28T07:41:09;2.60;99.90
55091;DHT22;40985;53.180;5.800;2023-02-28T07:43:35;2.70;99.90
55091;DHT22;40985;53.180;5.800;2023-02-28T07:46:07;2.70;99.90
55091;DHT22;40985;53.180;5.800;2023-02-28T07:48:34;2.50;99.90
55091;DHT22;40985;53.180;5.800;2023-02-28T07:51:01;2.50;99.90
55091;DHT22;40985;53.180;5.800;2023-02-28T07:53:27;2.60;99.90
55091;DHT22;40985;53.180;5.800;2023-02-28T07:55:57;2.60;99.90
55091;DHT22;40985;53.180;5.800;2023-02-28T07:58:24;2.50;99.90
55091;DHT22;40985;53.180;5.800;2023-02-28T08:00:50;2.40;99.90
55091;DHT22;40985;53.180;5.800;2023-02-28T08:03:18;2.50;99.90
55091;DHT22;40985;53.180;5.800;2023-02-28T08:05:44;2.70;99.90
55091;DHT22;40985;53.180;5.800;2023-02-28T08:08:09;2.50;99.90
55091;DHT22;40985;53.180;5.800;2023-02-28T08:10:35;2.60;99.90
55091;DHT22;40985;53.180;5.800;2023-02-28T08:13:01;2.70;99.90
55091;DHT22;40985;53.180;5.800;2023-02-28T08:15:27;2.60;99.90
55091;DHT22;40985;53.180;5.800;2023-02-28T08:17:52;2.60;99.90
55091;DHT22;40985;53.180;5.800;2023-02-28T08:20:18;2.80;99.90
55091;DHT22;40985;53.180;5.800;2023-02-28T08:22:44;2.70;99.90
55091;DHT22;40985;53.180;5.800;2023-02-28T08:25:10;2.80;99.90
55091;DHT22;40985;53.180;5.800;2023-02-28T08:27:36;2.90;99.90
55091;DHT22;40985;53.180;5.800;2023-02-28T08:30:03;2.70;99.90
55091;DHT22;40985;53.180;5.800;2023-02-28T08:32:28;2.90;99.90
55091;DHT22;40985;53.180;5.800;2023-02-28T08:34:54;2.90;99.90
55091;DHT22;40985;53.180;5.800;2023-02-28T08:37:20;2.80;99.90
55091;DHT22;40985;53.180;5.800;2023-02-28T08:39:45;2.80;99.90
55091;DHT22;40985;53.180;5.800;2023-02-28T08:42:11;2.90;99.90
55091;DHT22;40985;53.180;5.800;2023-02-28T08:44:37;3.00;99.90
55091;DHT22;40985;53.180;5.800;2023-02-28T08:47:03;3.00;99.90
55091;DHT22;40985;53.180;5.800;2023-02-28T08:49:29;2.90;99.90
55091;DHT22;40985;53.180;5.800;2023-02-28T08:51:54;2.90;99.90
55091;DHT22;40985;53.180;5.800;2023-02-28T08:54:23;3.00;99.90
55091;DHT22;40985;53.180;5.800;2023-02-28T08:56:48;3.00;99.90
55091;DHT22;40985;53.180;5.800;2023-02-28T08:59:14;3.00;99.90
55091;DHT22;40985;53.180;5.800;2023-02-28T09:01:40;3.00;99.90
55091;DHT22;40985;53.180;5.800;2023-02-28T09:04:07;3.20;99.90
55091;DHT22;40985;53.180;5.800;2023-02-28T09:06:34;3.20;99.90
55091;DHT22;40985;53.180;5.800;2023-02-28T09:09:00;3.30;99.90
55091;DHT22;40985;53.180;5.800;2023-02-28T09:11:27;3.10;99.90
55091;DHT22;40985;53.180;5.800;2023-02-28T09:13:53;3.40;99.90
55091;DHT22;40985;53.180;5.800;2023-02-28T09:16:21;3.30;99.90
55091;DHT22;40985;53.180;5.800;2023-02-28T09:18:47;3.30;99.90
55091;DHT22;40985;53.180;5.800;2023-02-28T09:21:15;3.40;99.90
55091;DHT22;40985;53.180;5.800;2023-02-28T09:23:42;3.40;99.90
55091;DHT22;40985;53.180;5.800;2023-02-28T09:26:17;3.40;99.90
55091;DHT22;40985;53.180;5.800;2023-02-28T09:28:42;3.60;99.90
55091;DHT22;40985;53.180;5.800;2023-02-28T09:31:17;3.60;99.90
55091;DHT22;40985;53.180;5.800;2023-02-28T09:33:46;3.80;99.90
55091;DHT22;40985;53.180;5.800;2023-02-28T09:36:12;3.90;99.90
55091;DHT22;40985;53.180;5.800;2023-02-28T09:38:38;3.90;99.90
55091;DHT22;40985;53.180;5.800;2023-02-28T09:41:19;4.10;99.90
55091;DHT22;40985;53.180;5.800;2023-02-28T09:43:49;4.10;99.90
55091;DHT22;40985;53.180;5.800;2023-02-28T09:46:37;4.30;99.90
55091;DHT22;40985;53.180;5.800;2023-02-28T09:49:32;4.40;99.90
55091;DHT22;40985;53.180;5.800;2023-02-28T09:52:02;4.40;99.90
55091;DHT22;40985;53.180;5.800;2023-02-28T09:54:31;4.50;99.90
55091;DHT22;40985;53.180;5.800;2023-02-28T10:05:43;4.50;99.90
55091;DHT22;40985;53.180;5.800;2023-02-28T10:08:18;4.70;99.90
55091;DHT22;40985;53.180;5.800;2023-02-28T10:10:58;4.80;99.90
55091;DHT22;40985;53.180;5.800;2023-02-28T10:13:53;4.90;99.90
55091;DHT22;40985;53.180;5.800;2023-02-28T10:19:16;5.10;99.90
55091;DHT22;40985;53.180;5.800;2023-02-28T10:21:47;5.10;99.90
55091;DHT22;40985;53.180;5.800;2023-02-28T10:24:42;4.90;99.90
55091;DHT22;40985;53.180;5.800;2023-02-28T10:27:17;4.90;99.90
55091;DHT22;40985;53.180;5.800;2023-02-28T10:29:49;5.00;99.90
55091;DHT22;40985;53.180;5.800;2023-02-28T10:32:18;5.20;99.90
55091;DHT22;40985;53.180;5.800;2023-02-28T10:34:44;5.30;99.90
55091;DHT22;40985;53.180;5.800;2023-02-28T10:37:13;5.30;99.90
55091;DHT22;40985;53.180;5.800;2023-02-28T10:39:43;5.50;99.90
55091;DHT22;40985;53.180;5.800;2023-02-28T10:42:24;5.80;99.90
55091;DHT22;40985;53.180;5.800;2023-02-28T10:47:58;6.00;99.90
55091;DHT22;40985;53.180;5.800;2023-02-28T10:52:53;5.80;99.90
55091;DHT22;40985;53.180;5.800;2023-02-28T10:55:20;5.80;99.90
55091;DHT22;40985;53.180;5.800;2023-02-28T10:57:47;5.80;99.90
55091;DHT22;40985;53.180;5.800;2023-02-28T11:02:41;6.00;99.90
55091;DHT22;40985;53.180;5.800;2023-02-28T11:05:28;6.10;99.90
55091;DHT22;40985;53.180;5.800;2023-02-28T11:10:28;6.30;99.90
55091;DHT22;40985;53.180;5.800;2023-02-28T11:12:56;6.60;99.90
55091;DHT22;40985;53.180;5.800;2023-02-28T11:15:25;6.90;99.90
55091;DHT22;40985;53.180;5.800;2023-02-28T11:20:25;6.90;99.90
55091;DHT22;40985;53.180;5.800;2023-02-28T11:22:52;7.00;99.90
55091;DHT22;40985;53.180;5.800;2023-02-28T11:25:29;7.00;99.90
55091;DHT22;40985;53.180;5.800;2023-02-28T11:28:00;6.90;99.90
55091;DHT22;40985;53.180;5.800;2023-02-28T11:30:37;6.70;99.90
55091;DHT22;40985;53.180;5.800;2023-02-28T11:33:23;6.70;99.90
55091;DHT22;40985;53.180;5.800;2023-02-28T11:35:50;6.70;99.90
55091;DHT22;40985;53.180;5.800;2023-02-28T11:38:16;6.60;99.90
55091;DHT22;40985;53.180;5.800;2023-02-28T11:46:07;6.80;99.90
55091;DHT22;40985;53.180;5.800;2023-02-28T11:51:22;6.80;99.90
55091;DHT22;40985;53.180;5.800;2023-02-28T11:56:57;7.10;99.90
55091;DHT22;40985;53.180;5.800;2023-02-28T12:07:49;7.20;99.90
55091;DHT22;40985;53.180;5.800;2023-02-28T12:10:26;7.10;99.90
55091;DHT22;40985;53.180;5.800;2023-02-28T12:13:15;7.30;99.90
55091;DHT22;40985;53.180;5.800;2023-02-28T12:24:14;7.50;99.90
55091;DHT22;40985;53.180;5.800;2023-02-28T12:26:45;7.50;99.90
55091;DHT22;40985;53.180;5.800;2023-02-28T12:29:25;7.60;99.90
55091;DHT22;40985;53.180;5.800;2023-02-28T12:32:17;7.80;99.90
55091;DHT22;40985;53.180;5.800;2023-02-28T12:34:52;7.80;99.90
55091;DHT22;40985;53.180;5.800;2023-02-28T12:37:27;8.10;99.90
55091;DHT22;40985;53.180;5.800;2023-02-28T12:40:01;8.30;99.90
55091;DHT22;40985;53.180;5.800;2023-02-28T12:42:41;8.50;99.90
55091;DHT22;40985;53.180;5.800;2023-02-28T12:45:18;8.30;99.90
55091;DHT22;40985;53.180;5.800;2023-02-28T12:47:48;8.50;99.90
55091;DHT22;40985;53.180;5.800;2023-02-28T12:50:16;8.50;99.90
55091;DHT22;40985;53.180;5.800;2023-02-28T12:56:08;8.30;99.90
55091;DHT22;40985;53.180;5.800;2023-02-28T12:58:44;8.20;99.90
55091;DHT22;40985;53.180;5.800;2023-02-28T13:09:56;8.30;99.90
55091;DHT22;40985;53.180;5.800;2023-02-28T13:12:23;8.30;99.90
55091;DHT22;40985;53.180;5.800;2023-02-28T13:14:50;8.50;99.90
55091;DHT22;40985;53.180;5.800;2023-02-28T13:17:20;8.60;99.90
55091;DHT22;40985;53.180;5.800;2023-02-28T13:24:53;9.10;99.90
55091;DHT22;40985;53.180;5.800;2023-02-28T13:27:40;9.10;99.90
55091;DHT22;40985;53.180;5.800;2023-02-28T13:38:47;8.00;99.90
55091;DHT22;40985;53.180;5.800;2023-02-28T13:44:14;8.10;99.90
55091;DHT22;40985;53.180;5.800;2023-02-28T13:49:25;8.50;99.90
55091;DHT22;40985;53.180;5.800;2023-02-28T14:02:48;8.60;99.90
55091;DHT22;40985;53.180;5.800;2023-02-28T14:05:21;8.40;99.90
55091;DHT22;40985;53.180;5.800;2023-02-28T14:07:54;8.50;99.90
55091;DHT22;40985;53.180;5.800;2023-02-28T14:10:32;8.40;99.90
55091;DHT22;40985;53.180;5.800;2023-02-28T14:13:03;8.50;99.90
55091;DHT22;40985;53.180;5.800;2023-02-28T14:20:50;8.70;99.90
55091;DHT22;40985;53.180;5.800;2023-02-28T14:26:29;8.60;99.90
55091;DHT22;40985;53.180;5.800;2023-02-28T14:31:34;8.60;99.90
55091;DHT22;40985;53.180;5.800;2023-02-28T14:37:02;8.70;99.90
55091;DHT22;40985;53.180;5.800;2023-02-28T14:39:29;8.40;99.90
55091;DHT22;40985;53.180;5.800;2023-02-28T14:41:58;8.10;99.90
55091;DHT22;40985;53.180;5.800;2023-02-28T14:44:30;7.80;99.90
55091;DHT22;40985;53.180;5.800;2023-02-28T14:46:59;7.70;99.90
55091;DHT22;40985;53.180;5.800;2023-02-28T14:49:36;7.80;99.90
55091;DHT22;40985;53.180;5.800;2023-02-28T14:52:22;7.70;99.90
55091;DHT22;40985;53.180;5.800;2023-02-28T14:55:15;7.60;99.90
55091;DHT22;40985;53.180;5.800;2023-02-28T14:57:41;7.40;99.90
55091;DHT22;40985;53.180;5.800;2023-02-28T15:02:36;7.20;99.90
55091;DHT22;40985;53.180;5.800;2023-02-28T15:07:44;7.00;99.90
55091;DHT22;40985;53.180;5.800;2023-02-28T15:10:26;7.00;99.90
55091;DHT22;40985;53.180;5.800;2023-02-28T15:12:58;6.90;99.90
55091;DHT22;40985;53.180;5.800;2023-02-28T15:16:20;6.80;99.90
55091;DHT22;40985;53.180;5.800;2023-02-28T15:18:49;6.70;99.90
55091;DHT22;40985;53.180;5.800;2023-02-28T15:21:18;6.70;99.90
55091;DHT22;40985;53.180;5.800;2023-02-28T15:26:29;6.80;99.90
55091;DHT22;40985;53.180;5.800;2023-02-28T15:29:10;6.80;99.90
55091;DHT22;40985;53.180;5.800;2023-02-28T15:31:43;6.90;99.90
55091;DHT22;40985;53.180;5.800;2023-02-28T15:34:18;6.80;99.90
55091;DHT22;40985;53.180;5.800;2023-02-28T15:36:45;6.80;99.90
55091;DHT22;40985;53.180;5.800;2023-02-28T15:39:28;6.80;99.90
55091;DHT22;40985;53.180;5.800;2023-02-28T15:42:18;6.80;99.90
55091;DHT22;40985;53.180;5.800;2023-02-28T15:44:44;6.80;99.90
55091;DHT22;40985;53.180;5.800;2023-02-28T15:47:28;6.80;99.90
55091;DHT22;40985;53.180;5.800;2023-02-28T15:49:58;6.70;99.90
55091;DHT22;40985;53.180;5.800;2023-02-28T15:52:39;6.60;99.90
55091;DHT22;40985;53.180;5.800;2023-02-28T15:55:18;6.50;99.90
55091;DHT22;40985;53.180;5.800;2023-02-28T15:57:46;6.40;99.90
55091;DHT22;40985;53.180;5.800;2023-02-28T16:00:16;6.40;99.90
55091;DHT22;40985;53.180;5.800;2023-02-28T16:02:42;6.40;99.90
55091;DHT22;40985;53.180;5.800;2023-02-28T16:07:36;6.30;99.90
55091;DHT22;40985;53.180;5.800;2023-02-28T16:10:02;6.20;99.90
55091;DHT22;40985;53.180;5.800;2023-02-28T16:12:30;6.30;99.90
55091;DHT22;40985;53.180;5.800;2023-02-28T16:14:59;6.30;99.90
55091;DHT22;40985;53.180;5.800;2023-02-28T16:17:35;6.20;99.90
55091;DHT22;40985;53.180;5.800;2023-02-28T16:20:01;6.10;99.90
55091;DHT22;40985;53.180;5.800;2023-02-28T16:22:31;6.00;99.90
55091;DHT22;40985;53.180;5.800;2023-02-28T16:24:56;5.90;99.90
55091;DHT22;40985;53.180;5.800;2023-02-28T16:27:30;5.90;99.90
55091;DHT22;40985;53.180;5.800;2023-02-28T16:29:56;5.70;99.90
55091;DHT22;40985;53.180;5.800;2023-02-28T16:32:22;5.60;99.90
55091;DHT22;40985;53.180;5.800;2023-02-28T16:34:48;5.50;99.90
55091;DHT22;40985;53.180;5.800;2023-02-28T16:37:16;5.50;99.90
55091;DHT22;40985;53.180;5.800;2023-02-28T16:39:43;5.40;99.90
55091;DHT22;40985;53.180;5.800;2023-02-28T16:42:21;5.30;99.90
55091;DHT22;40985;53.180;5.800;2023-02-28T16:44:48;5.30;99.90
55091;DHT22;40985;53.180;5.800;2023-02-28T16:47:14;5.20;99.90
55091;DHT22;40985;53.180;5.800;2023-02-28T16:49:40;5.10;99.90
55091;DHT22;40985;53.180;5.800;2023-02-28T16:52:08;5.10;99.90
55091;DHT22;40985;53.180;5.800;2023-02-28T16:54:34;5.00;99.90
55091;DHT22;40985;53.180;5.800;2023-02-28T16:57:00;5.00;99.90
55091;DHT22;40985;53.180;5.800;2023-02-28T16:59:26;4.90;99.90
55091;DHT22;40985;53.180;5.800;2023-02-28T17:01:53;4.90;99.90
55091;DHT22;40985;53.180;5.800;2023-02-28T17:04:19;4.80;99.90
55091;DHT22;40985;53.180;5.800;2023-02-28T17:06:45;4.80;99.90
55091;DHT22;40985;53.180;5.800;2023-02-28T17:09:17;4.70;99.90
55091;DHT22;40985;53.180;5.800;2023-02-28T17:11:43;4.70;99.90
55091;DHT22;40985;53.180;5.800;2023-02-28T17:14:10;4.50;99.90
55091;DHT22;40985;53.180;5.800;2023-02-28T17:16:36;4.60;99.90
55091;DHT22;40985;53.180;5.800;2023-02-28T17:19:07;4.50;99.90
55091;DHT22;40985;53.180;5.800;2023-02-28T17:21:36;4.40;99.90
55091;DHT22;40985;53.180;5.800;2023-02-28T17:24:03;4.40;99.90
55091;DHT22;40985;53.180;5.800;2023-02-28T17:26:29;4.40;99.90
55091;DHT22;40985;53.180;5.800;2023-02-28T17:28:58;4.30;99.90
55091;DHT22;40985;53.180;5.800;2023-02-28T17:31:24;4.30;99.90
55091;DHT22;40985;53.180;5.800;2023-02-28T17:33:51;4.20;99.90
55091;DHT22;40985;53.180;5.800;2023-02-28T17:36:25;4.10;99.90
55091;DHT22;40985;53.180;5.800;2023-02-28T17:38:53;4.10;99.90
55091;DHT22;40985;53.180;5.800;2023-02-28T17:41:20;4.00;99.90
55091;DHT22;40985;53.180;5.800;2023-02-28T17:43:45;3.90;99.90
55091;DHT22;40985;53.180;5.800;2023-02-28T17:46:17;3.90;99.90
55091;DHT22;40985;53.180;5.800;2023-02-28T17:48:49;3.90;99.90
55091;DHT22;40985;53.180;5.800;2023-02-28T17:51:16;3.80;99.90
55091;DHT22;40985;53.180;5.800;2023-02-28T17:53:42;3.80;99.90
55091;DHT22;40985;53.180;5.800;2023-02-28T17:56:22;3.80;99.90
55091;DHT22;40985;53.180;5.800;2023-02-28T17:58:49;3.80;99.90
55091;DHT22;40985;53.180;5.800;2023-02-28T18:01:16;3.80;99.90
55091;DHT22;40985;53.180;5.800;2023-02-28T18:03:42;3.80;99.90
55091;DHT22;40985;53.180;5.800;2023-02-28T18:06:14;3.70;99.90
55091;DHT22;40985;53.180;5.800;2023-02-28T18:08:41;3.70;99.90
55091;DHT22;40985;53.180;5.800;2023-02-28T18:11:07;3.60;99.90
55091;DHT22;40985;53.180;5.800;2023-02-28T18:13:46;3.60;99.90
55091;DHT22;40985;53.180;5.800;2023-02-28T18:16:13;3.60;99.90
55091;DHT22;40985;53.180;5.800;2023-02-28T18:18:39;3.50;99.90
55091;DHT22;40985;53.180;5.800;2023-02-28T18:21:06;3.50;99.90
55091;DHT22;40985;53.180;5.800;2023-02-28T18:23:32;3.40;99.90
55091;DHT22;40985;53.180;5.800;2023-02-28T18:25:57;3.50;99.90
55091;DHT22;40985;53.180;5.800;2023-02-28T18:28:24;3.40;99.90
55091;DHT22;40985;53.180;5.800;2023-02-28T18:30:50;3.40;99.90
55091;DHT22;40985;53.180;5.800;2023-02-28T18:33:15;3.40;99.90